TAFS

Station TAF
VRMM
VRMM 070500Z 0706/0812 27005KT 9999 FEW018TCU SCT100 TEMPO 0710/0716 5000 TSRA SCT017CB=
VRMH
VRMH 070500Z 0706/0812 23003KT 9999 FEW018TCU TEMPO 0706/0712 FEW017CB=
VRMK
VRMK 070500Z 0706/0806 24003KT 9999 FEW018TCU SCT100 TEMPO 0710/0716 5000 TSRA SCT017CB=
VRMT
VRMT 070500Z 0706/0806 25003KT 9999 FEW018TCU SCT100 TEMPO 0710/0716 5000 TSRA SCT017CB=
VRMG
VRMG 070500Z 0706/0812 30003KT 9999 FEW018TCU TEMPO 0710/0716 5000 TSRA SCT017CB=